Terminal Aerodrome Forecast
Issued by NWS

Current Version | Previous Version | Text Only | Print | Product List | Glossary On
Versions: 1 2 3 4 5 6 7 8 9 10 11 12 13 14
000
FTUS41 KLWX 012300 RRA
TAFMTN
TAF
KMTN 012343Z 0200/0224 VRB03KT P6SM OVC060
     FM020300 13007KT 3SM -SNPL OVC040
     FM020600 10007KT 1SM -RA OVC008 WS020/17030KT
     FM020900 VRB03KT 1SM -RA OVC003 WS020/20040KT
     FM021500 29006KT P6SM OVC003
     FM021700 29013G23KT P6SM OVC050
     FM021900 29019G32KT P6SM BKN060
     FM022100 30024G40KT P6SM BKN050
      AMD NOT SKED 0202/0212=

USA.gov is the U.S. government's official web portal to all federal, state and local government web resources and services.